createdAt,value
2019-02-18T00:00:23.948Z,2.40
2019-02-18T00:02:52.357Z,2.30
2019-02-18T00:05:20.759Z,2.10
2019-02-18T00:07:49.175Z,2.10
2019-02-18T00:10:17.584Z,2.10
2019-02-18T00:12:45.977Z,2.10
2019-02-18T00:15:14.760Z,2.10
2019-02-18T00:17:43.180Z,2.10
2019-02-18T00:20:11.588Z,2.10
2019-02-18T00:22:40.000Z,2.00
2019-02-18T00:25:08.387Z,2.00
2019-02-18T00:27:36.799Z,2.00
2019-02-18T00:30:07.054Z,1.90
2019-02-18T00:32:35.471Z,1.90
2019-02-18T00:35:04.194Z,1.90
2019-02-18T00:37:32.615Z,1.80
2019-02-18T00:40:01.030Z,1.70
2019-02-18T00:42:29.502Z,1.70
2019-02-18T00:44:57.923Z,1.70
2019-02-18T00:47:26.335Z,1.70
2019-02-18T00:49:54.739Z,1.70
2019-02-18T00:52:23.159Z,1.70
2019-02-18T00:54:51.551Z,1.70
2019-02-18T00:57:19.953Z,1.70
2019-02-18T00:59:48.371Z,1.60
2019-02-18T01:02:16.802Z,1.60
2019-02-18T01:04:45.207Z,1.60
2019-02-18T01:07:13.693Z,1.60
2019-02-18T01:09:42.091Z,1.50
2019-02-18T01:12:10.499Z,1.50
2019-02-18T01:14:38.968Z,1.40
2019-02-18T01:17:07.387Z,1.50
2019-02-18T01:19:35.791Z,1.40
2019-02-18T01:22:04.203Z,1.40
2019-02-18T01:24:32.594Z,1.40
2019-02-18T01:27:01.011Z,1.40
2019-02-18T01:29:29.400Z,1.40
2019-02-18T01:31:57.812Z,1.40
2019-02-18T01:34:26.222Z,1.30
2019-02-18T01:36:54.636Z,1.20
2019-02-18T01:39:23.277Z,1.20
2019-02-18T01:41:51.673Z,1.20
2019-02-18T01:44:20.097Z,1.20
2019-02-18T01:46:48.499Z,1.20
2019-02-18T01:49:16.903Z,1.20
2019-02-18T01:51:45.307Z,1.10
2019-02-18T01:54:13.721Z,1.10
2019-02-18T01:56:42.124Z,1.10
2019-02-18T01:59:10.521Z,1.00
2019-02-18T02:01:38.927Z,1.00
2019-02-18T02:04:07.346Z,1.00
2019-02-18T02:06:35.743Z,1.00
2019-02-18T02:09:08.025Z,1.00
2019-02-18T02:11:36.421Z,0.90
2019-02-18T02:14:04.843Z,0.90
2019-02-18T02:16:33.250Z,1.00
2019-02-18T02:19:01.672Z,0.90
2019-02-18T02:21:30.074Z,0.90
2019-02-18T02:23:58.472Z,0.80
2019-02-18T02:26:26.881Z,0.80
2019-02-18T02:28:55.278Z,0.70
2019-02-18T02:31:23.690Z,0.70
2019-02-18T02:33:52.099Z,0.70
2019-02-18T02:36:20.520Z,0.60
2019-02-18T02:38:48.938Z,0.60
2019-02-18T02:41:17.352Z,0.60
2019-02-18T02:43:45.771Z,0.60
2019-02-18T02:46:14.178Z,0.60
2019-02-18T02:48:42.601Z,0.60
2019-02-18T02:51:10.995Z,0.70
2019-02-18T02:53:39.420Z,0.60
2019-02-18T02:56:07.807Z,0.50
2019-02-18T02:58:36.228Z,0.60
2019-02-18T03:01:04.695Z,0.60
2019-02-18T03:03:33.093Z,0.60
2019-02-18T03:06:01.492Z,0.60
2019-02-18T03:08:29.929Z,0.60
2019-02-18T03:10:58.336Z,0.50
2019-02-18T03:13:26.755Z,0.50
2019-02-18T03:15:55.157Z,0.40
2019-02-18T03:18:23.570Z,0.50
2019-02-18T03:20:52.001Z,0.50
2019-02-18T03:23:20.389Z,0.50
2019-02-18T03:25:49.634Z,0.50
2019-02-18T03:28:23.666Z,0.50
2019-02-18T03:31:01.510Z,0.50
2019-02-18T03:33:35.573Z,0.40
2019-02-18T03:36:03.973Z,0.30
2019-02-18T03:38:32.371Z,0.20
2019-02-18T03:41:03.406Z,0.20
2019-02-18T03:43:30.919Z,0.30
2019-02-18T03:45:59.350Z,0.20
2019-02-18T03:48:27.733Z,0.20
2019-02-18T03:50:56.139Z,0.20
2019-02-18T03:53:24.613Z,0.20
2019-02-18T03:55:53.078Z,0.20
2019-02-18T03:58:21.778Z,0.20
2019-02-18T04:00:50.615Z,0.30
2019-02-18T04:03:19.142Z,0.30
2019-02-18T04:05:47.582Z,0.30
2019-02-18T04:08:15.983Z,0.40
2019-02-18T04:10:44.400Z,0.40
2019-02-18T04:13:12.871Z,0.40
2019-02-18T04:15:41.354Z,0.40
2019-02-18T04:18:09.765Z,0.20
2019-02-18T04:20:38.157Z,0.30
2019-02-18T04:23:06.610Z,0.30
2019-02-18T04:25:35.027Z,0.30
2019-02-18T04:28:03.437Z,0.20
2019-02-18T04:30:31.852Z,0.20
2019-02-18T04:33:00.255Z,0.20
2019-02-18T04:35:28.659Z,0.10
2019-02-18T04:37:57.080Z,0.20
2019-02-18T04:40:25.484Z,0.10
2019-02-18T04:42:53.912Z,0.10
2019-02-18T04:45:22.308Z,0.00
2019-02-18T04:47:50.713Z,0.00
2019-02-18T04:50:19.109Z,0.00
2019-02-18T04:52:47.568Z,0.00
2019-02-18T04:55:15.959Z,-0.10
2019-02-18T04:57:44.614Z,-0.10
2019-02-18T05:00:13.015Z,-0.10
2019-02-18T05:02:41.452Z,-0.10
2019-02-18T05:05:10.461Z,-0.10
2019-02-18T05:07:38.884Z,-0.10
2019-02-18T05:10:12.324Z,-0.10
2019-02-18T05:12:40.741Z,-0.10
2019-02-18T05:15:09.583Z,-0.10
2019-02-18T05:17:37.998Z,-0.10
2019-02-18T05:20:07.748Z,-0.10
2019-02-18T05:22:36.171Z,-0.20
2019-02-18T05:25:09.279Z,-0.30
2019-02-18T05:27:37.729Z,-0.30
2019-02-18T05:30:09.124Z,-0.30
2019-02-18T05:32:37.534Z,-0.30
2019-02-18T05:35:07.290Z,-0.30
2019-02-18T05:37:35.716Z,-0.30
2019-02-18T05:40:05.764Z,-0.20
2019-02-18T05:42:34.183Z,-0.20
2019-02-18T05:45:02.772Z,-0.30
2019-02-18T05:47:31.192Z,-0.30
2019-02-18T05:49:59.601Z,-0.30
2019-02-18T05:52:28.019Z,-0.30
2019-02-18T05:54:56.454Z,-0.30
2019-02-18T05:57:24.888Z,-0.30
2019-02-18T05:59:53.281Z,-0.30
2019-02-18T06:02:22.297Z,-0.30
2019-02-18T06:04:51.025Z,-0.30
2019-02-18T06:07:19.450Z,-0.30
2019-02-18T06:09:47.856Z,-0.30
2019-02-18T06:12:16.287Z,-0.30
2019-02-18T06:14:44.710Z,-0.30
2019-02-18T06:17:13.139Z,-0.30
2019-02-18T06:19:41.552Z,-0.30
2019-02-18T06:22:09.983Z,-0.30
2019-02-18T06:24:38.399Z,-0.40
2019-02-18T06:27:06.821Z,-0.30
2019-02-18T06:29:35.236Z,-0.30
2019-02-18T06:32:03.650Z,-0.30
2019-02-18T06:34:32.056Z,-0.30
2019-02-18T06:37:00.477Z,-0.30
2019-02-18T06:39:40.215Z,-0.30
2019-02-18T06:41:59.026Z,-0.30
2019-02-18T06:44:29.095Z,-0.30
2019-02-18T06:46:59.159Z,-0.20
2019-02-18T06:49:27.585Z,-0.20
2019-02-18T06:51:55.994Z,-0.10
2019-02-18T06:54:24.406Z,-0.10
2019-02-18T06:59:54.500Z,-0.10
2019-02-18T07:02:30.561Z,-0.10
2019-02-18T07:05:09.629Z,-0.10
2019-02-18T07:07:45.684Z,0.00
2019-02-18T07:10:15.719Z,-0.10
2019-02-18T07:12:45.907Z,-0.10
2019-02-18T07:15:14.307Z,0.00
2019-02-18T07:17:42.728Z,0.00
2019-02-18T07:20:11.189Z,0.00
2019-02-18T07:22:39.674Z,0.00
2019-02-18T07:25:08.946Z,0.00
2019-02-18T07:27:37.347Z,0.00
2019-02-18T07:30:09.173Z,0.00
2019-02-18T07:32:37.576Z,0.20
2019-02-18T07:35:06.249Z,0.30
2019-02-18T07:37:34.721Z,0.40
2019-02-18T07:40:03.603Z,0.50
2019-02-18T07:42:32.019Z,0.50
2019-02-18T07:45:00.438Z,0.60
2019-02-18T07:47:28.843Z,0.80
2019-02-18T07:49:57.258Z,0.90
2019-02-18T07:52:25.678Z,1.10
2019-02-18T07:54:54.073Z,1.20
2019-02-18T07:57:22.476Z,1.30
2019-02-18T07:59:50.895Z,1.50
2019-02-18T08:02:19.368Z,1.60
2019-02-18T08:04:47.789Z,1.70
2019-02-18T08:07:16.204Z,1.80
2019-02-18T08:09:44.677Z,2.00
2019-02-18T08:12:13.089Z,2.10
2019-02-18T08:14:41.486Z,2.30
2019-02-18T08:17:09.884Z,2.40
2019-02-18T08:19:38.307Z,2.60
2019-02-18T08:22:06.712Z,2.80
2019-02-18T08:24:35.114Z,3.00
2019-02-18T08:27:03.519Z,3.10
2019-02-18T08:29:31.922Z,3.30
2019-02-18T08:32:00.319Z,3.40
2019-02-18T08:34:28.732Z,3.40
2019-02-18T08:36:57.137Z,3.50
2019-02-18T08:39:25.899Z,3.70
2019-02-18T08:41:54.315Z,4.00
2019-02-18T08:44:22.736Z,4.20
2019-02-18T08:46:51.135Z,4.60
2019-02-18T08:49:19.596Z,5.10
2019-02-18T08:51:48.049Z,5.40
2019-02-18T08:54:16.465Z,5.50
2019-02-18T08:56:44.868Z,5.60
2019-02-18T08:59:13.269Z,5.50
2019-02-18T09:01:41.665Z,5.60
2019-02-18T09:04:10.083Z,5.80
2019-02-18T09:06:38.488Z,5.90
2019-02-18T09:09:07.067Z,6.00
2019-02-18T09:11:36.310Z,6.00
2019-02-18T09:14:04.810Z,6.10
2019-02-18T09:16:33.193Z,6.10
2019-02-18T09:19:01.606Z,6.30
2019-02-18T09:21:31.785Z,6.40
2019-02-18T09:24:01.845Z,6.70
2019-02-18T09:26:30.264Z,6.90
2019-02-18T09:28:58.674Z,7.10
2019-02-18T09:31:28.544Z,7.20
2019-02-18T09:33:56.945Z,7.30
2019-02-18T09:36:25.368Z,7.30
2019-02-18T09:38:53.768Z,7.40
2019-02-18T09:41:22.171Z,7.60
2019-02-18T09:43:50.583Z,7.80
2019-02-18T09:46:18.989Z,8.00
2019-02-18T09:48:47.395Z,8.10
2019-02-18T09:51:15.800Z,8.20
2019-02-18T09:53:44.208Z,8.30
2019-02-18T09:56:12.607Z,8.50
2019-02-18T09:58:41.024Z,8.70
2019-02-18T10:01:09.419Z,8.70
2019-02-18T10:03:37.845Z,8.70
2019-02-18T10:06:06.237Z,8.90
2019-02-18T10:08:34.638Z,9.20
2019-02-18T10:11:03.053Z,9.50
2019-02-18T10:13:31.447Z,9.80
2019-02-18T10:15:59.859Z,9.80
2019-02-18T10:18:28.286Z,9.80
2019-02-18T10:20:56.692Z,9.80
2019-02-18T10:23:25.177Z,10.00
2019-02-18T10:25:53.603Z,10.20
2019-02-18T10:28:22.002Z,10.50
2019-02-18T10:30:50.418Z,10.60
2019-02-18T10:33:18.820Z,10.80
2019-02-18T10:35:47.217Z,11.00
2019-02-18T10:38:15.610Z,11.10
2019-02-18T10:40:44.100Z,11.30
2019-02-18T10:43:12.507Z,11.40
2019-02-18T10:45:40.956Z,11.40
2019-02-18T10:48:09.402Z,11.70
2019-02-18T10:50:37.816Z,11.80
2019-02-18T10:53:06.206Z,12.10
2019-02-18T10:55:34.638Z,12.00
2019-02-18T10:58:03.022Z,12.00
2019-02-18T11:00:31.429Z,12.00
2019-02-18T11:02:59.845Z,12.00
2019-02-18T11:05:28.263Z,12.20
2019-02-18T11:07:57.086Z,12.40
2019-02-18T11:10:25.572Z,12.30
2019-02-18T11:12:53.967Z,12.50
2019-02-18T11:15:22.409Z,12.70
2019-02-18T11:17:50.803Z,12.80
2019-02-18T11:20:19.232Z,12.80
2019-02-18T11:22:47.641Z,13.00
2019-02-18T11:25:16.126Z,13.00
2019-02-18T11:27:44.522Z,13.20
2019-02-18T11:30:17.095Z,13.40
2019-02-18T11:32:45.555Z,13.40
2019-02-18T11:35:14.043Z,13.50
2019-02-18T11:37:42.460Z,13.70
2019-02-18T11:40:13.588Z,13.90
2019-02-18T11:42:41.991Z,14.10
2019-02-18T11:45:12.852Z,14.30
2019-02-18T11:47:41.311Z,14.50
2019-02-18T11:50:11.672Z,14.50
2019-02-18T11:52:40.075Z,14.70
2019-02-18T11:55:12.520Z,15.00
2019-02-18T11:57:41.391Z,15.00
2019-02-18T12:00:12.886Z,15.10
2019-02-18T12:02:41.352Z,15.30
2019-02-18T12:05:11.100Z,15.50
2019-02-18T12:07:39.581Z,15.70
2019-02-18T12:10:12.617Z,15.80
2019-02-18T12:12:41.383Z,15.80
2019-02-18T12:15:14.357Z,15.80
2019-02-18T12:17:42.765Z,15.80
2019-02-18T12:20:13.393Z,15.80
2019-02-18T12:22:41.867Z,15.60
2019-02-18T12:25:11.118Z,15.70
2019-02-18T12:27:39.899Z,15.90
2019-02-18T12:30:11.622Z,16.20
2019-02-18T12:32:40.099Z,16.40
2019-02-18T12:35:08.766Z,16.60
2019-02-18T12:37:37.186Z,16.70
2019-02-18T12:40:08.436Z,16.60
2019-02-18T12:42:37.115Z,16.60
2019-02-18T12:45:08.474Z,16.50
2019-02-18T12:47:37.218Z,16.70
2019-02-18T12:50:07.339Z,16.90
2019-02-18T12:52:35.835Z,16.90
2019-02-18T12:55:05.717Z,17.10
2019-02-18T12:57:34.504Z,17.30
2019-02-18T13:00:03.347Z,17.50
2019-02-18T13:02:31.977Z,17.60
2019-02-18T13:05:00.466Z,17.50
2019-02-18T13:07:28.998Z,17.40
2019-02-18T13:09:57.513Z,17.20
2019-02-18T13:12:26.055Z,17.40
2019-02-18T13:14:54.536Z,17.50
2019-02-18T13:17:23.231Z,17.70
2019-02-18T13:19:51.646Z,17.80
2019-02-18T13:22:20.059Z,17.90
2019-02-18T13:24:48.521Z,17.90
2019-02-18T13:27:16.948Z,18.00
2019-02-18T13:29:45.339Z,18.10
2019-02-18T13:32:13.817Z,18.00
2019-02-18T13:34:42.608Z,18.00
2019-02-18T13:37:12.918Z,18.10
2019-02-18T13:39:41.319Z,18.30
2019-02-18T13:42:09.747Z,18.30
2019-02-18T13:44:38.147Z,18.40
2019-02-18T13:47:06.622Z,18.60
2019-02-18T13:49:35.473Z,18.70
2019-02-18T13:52:04.154Z,18.70
2019-02-18T13:54:32.550Z,18.70
2019-02-18T13:57:00.954Z,18.80
2019-02-18T13:59:29.376Z,18.70
2019-02-18T14:01:57.787Z,18.80
2019-02-18T14:04:26.195Z,18.90
2019-02-18T14:06:54.988Z,18.80
2019-02-18T14:09:23.391Z,18.80
2019-02-18T14:11:51.793Z,18.80
2019-02-18T14:14:20.200Z,18.60
2019-02-18T14:16:48.624Z,18.60
2019-02-18T14:19:17.016Z,18.70
2019-02-18T14:21:45.817Z,18.70
2019-02-18T14:24:14.205Z,18.70
2019-02-18T14:26:42.623Z,18.80
2019-02-18T14:29:11.009Z,18.70
2019-02-18T14:31:39.418Z,18.60
2019-02-18T14:34:07.836Z,18.60
2019-02-18T14:36:36.256Z,18.60
2019-02-18T14:39:08.538Z,18.70
2019-02-18T14:41:36.942Z,18.80
2019-02-18T14:44:05.414Z,18.70
2019-02-18T14:46:33.823Z,18.70
2019-02-18T14:49:02.223Z,18.70
2019-02-18T14:51:30.639Z,18.70
2019-02-18T14:53:59.315Z,18.60
2019-02-18T14:56:27.747Z,18.60
2019-02-18T14:58:56.149Z,18.60
2019-02-18T15:01:24.564Z,18.40
2019-02-18T15:03:53.020Z,18.20
2019-02-18T15:06:21.505Z,18.20
2019-02-18T15:08:50.278Z,18.20
2019-02-18T15:11:18.696Z,18.20
2019-02-18T15:13:47.105Z,18.20
2019-02-18T15:16:15.520Z,18.20
2019-02-18T15:18:43.901Z,18.20
2019-02-18T15:21:12.383Z,18.30
2019-02-18T15:23:40.769Z,18.20
2019-02-18T15:26:09.235Z,18.20
2019-02-18T15:28:37.665Z,18.20
2019-02-18T15:31:06.123Z,18.10
2019-02-18T15:33:34.521Z,18.00
2019-02-18T15:36:02.927Z,18.00
2019-02-18T15:38:31.342Z,18.00
2019-02-18T15:41:00.176Z,17.90
2019-02-18T15:43:28.672Z,17.90
2019-02-18T15:45:57.145Z,17.80
2019-02-18T15:48:25.569Z,17.70
2019-02-18T15:50:53.968Z,17.60
2019-02-18T15:53:22.375Z,17.50
2019-02-18T15:55:50.775Z,17.40
2019-02-18T15:58:19.193Z,17.30
2019-02-18T16:00:47.577Z,17.20
2019-02-18T16:03:15.978Z,17.00
2019-02-18T16:05:44.380Z,16.90
2019-02-18T16:08:12.801Z,16.80
2019-02-18T16:10:41.203Z,16.60
2019-02-18T16:13:09.801Z,16.40
2019-02-18T16:15:38.210Z,16.20
2019-02-18T16:18:06.621Z,16.10
2019-02-18T16:20:35.099Z,15.90
2019-02-18T16:23:03.526Z,15.70
2019-02-18T16:25:32.004Z,15.50
2019-02-18T16:28:00.414Z,15.30
2019-02-18T16:30:28.825Z,15.10
2019-02-18T16:32:57.240Z,14.90
2019-02-18T16:35:26.011Z,14.60
2019-02-18T16:37:54.678Z,14.20
2019-02-18T16:40:23.469Z,13.70
2019-02-18T16:42:59.109Z,13.40
2019-02-18T16:45:22.088Z,13.10
2019-02-18T16:47:50.504Z,12.80
2019-02-18T16:50:18.890Z,12.50
2019-02-18T16:52:47.307Z,12.20
2019-02-18T16:55:16.223Z,11.80
2019-02-18T16:57:44.791Z,11.70
2019-02-18T17:00:25.979Z,11.60
2019-02-18T17:02:54.541Z,11.30
2019-02-18T17:05:22.936Z,11.00
2019-02-18T17:07:52.136Z,10.80
2019-02-18T17:10:20.779Z,10.60
2019-02-18T17:12:49.660Z,10.50
2019-02-18T17:15:18.148Z,10.50
2019-02-18T17:17:46.630Z,10.40
2019-02-18T17:20:15.069Z,10.40
2019-02-18T17:22:43.489Z,10.20
2019-02-18T17:25:13.119Z,10.20
2019-02-18T17:27:41.727Z,10.00
2019-02-18T17:30:14.510Z,9.90
2019-02-18T17:32:43.069Z,9.80
2019-02-18T17:35:12.895Z,9.70
2019-02-18T17:37:41.619Z,9.50
2019-02-18T17:40:13.571Z,9.30
2019-02-18T17:42:42.330Z,9.20
2019-02-18T17:45:13.364Z,9.00
2019-02-18T17:47:41.883Z,8.80
2019-02-18T17:50:17.367Z,8.70
2019-02-18T17:52:46.455Z,8.60
2019-02-18T17:55:16.607Z,8.60
2019-02-18T17:57:45.101Z,8.50
2019-02-18T18:00:21.523Z,8.40
2019-02-18T18:02:50.098Z,8.30
2019-02-18T18:05:18.588Z,8.40
2019-02-18T18:07:47.063Z,8.40
2019-02-18T18:10:15.980Z,8.30
2019-02-18T18:12:44.391Z,8.10
2019-02-18T18:15:14.925Z,8.10
2019-02-18T18:17:43.341Z,7.90
2019-02-18T18:20:12.951Z,7.80
2019-02-18T18:22:41.441Z,7.70
2019-02-18T18:25:12.030Z,7.60
2019-02-18T18:27:40.419Z,7.60
2019-02-18T18:30:11.359Z,7.60
2019-02-18T18:32:39.798Z,7.60
2019-02-18T18:35:10.819Z,7.50
2019-02-18T18:37:39.338Z,7.40
2019-02-18T18:40:15.086Z,7.30
2019-02-18T18:42:43.531Z,7.20
2019-02-18T18:45:15.749Z,7.20
2019-02-18T18:47:44.281Z,7.10
2019-02-18T18:50:17.583Z,7.10
2019-02-18T18:52:46.165Z,7.00
2019-02-18T18:55:14.653Z,6.90
2019-02-18T18:57:43.043Z,6.90
2019-02-18T19:00:18.803Z,6.90
2019-02-18T19:02:47.209Z,6.80
2019-02-18T19:05:15.622Z,6.70
2019-02-18T19:07:44.028Z,6.70
2019-02-18T19:10:12.437Z,6.70
2019-02-18T19:12:40.822Z,6.40
2019-02-18T19:15:11.943Z,6.40
2019-02-18T19:17:40.337Z,6.40
2019-02-18T19:20:11.554Z,6.40
2019-02-18T19:22:40.072Z,6.30
2019-02-18T19:25:12.690Z,6.20
2019-02-18T19:27:41.240Z,6.10
2019-02-18T19:30:21.739Z,6.00
2019-02-18T19:32:50.520Z,6.00
2019-02-18T19:35:18.933Z,5.90
2019-02-18T19:37:47.319Z,5.80
2019-02-18T19:40:15.738Z,5.80
2019-02-18T19:42:44.144Z,5.70
2019-02-18T19:45:23.635Z,5.60
2019-02-18T19:47:52.070Z,5.40
2019-02-18T19:50:20.496Z,5.30
2019-02-18T19:52:48.897Z,5.30
2019-02-18T19:55:17.295Z,5.30
2019-02-18T19:57:45.689Z,5.20
2019-02-18T20:00:19.185Z,5.30
2019-02-18T20:02:47.943Z,5.30
2019-02-18T20:05:16.415Z,5.20
2019-02-18T20:07:44.838Z,5.20
2019-02-18T20:10:13.481Z,5.20
2019-02-18T20:12:41.891Z,5.10
2019-02-18T20:15:14.848Z,5.20
2019-02-18T20:17:43.301Z,5.20
2019-02-18T20:20:16.323Z,5.10
2019-02-18T20:22:44.727Z,5.10
2019-02-18T20:25:13.275Z,5.00
2019-02-18T20:27:41.819Z,5.00
2019-02-18T20:30:14.414Z,4.90
2019-02-18T20:32:42.830Z,4.80
2019-02-18T20:35:11.707Z,4.80
2019-02-18T20:37:40.191Z,4.70
2019-02-18T20:40:09.963Z,4.70
2019-02-18T20:42:38.805Z,4.60
2019-02-18T20:45:10.167Z,4.60
2019-02-18T20:47:38.571Z,4.50
2019-02-18T20:50:09.627Z,4.50
2019-02-18T20:52:38.031Z,4.50
2019-02-18T20:55:09.056Z,4.50
2019-02-18T20:57:37.631Z,4.60
2019-02-18T21:00:10.729Z,4.50
2019-02-18T21:02:39.134Z,4.40
2019-02-18T21:05:07.968Z,4.30
2019-02-18T21:07:36.385Z,4.20
2019-02-18T21:10:07.697Z,4.10
2019-02-18T21:12:36.116Z,4.00
2019-02-18T21:15:05.060Z,3.90
2019-02-18T21:17:33.728Z,3.90
2019-02-18T21:20:02.130Z,3.90
2019-02-18T21:22:30.526Z,4.10
2019-02-18T21:24:58.943Z,4.10
2019-02-18T21:27:27.348Z,4.10
2019-02-18T21:29:55.759Z,4.10
2019-02-18T21:32:24.161Z,4.00
2019-02-18T21:34:52.554Z,4.00
2019-02-18T21:37:20.965Z,4.00
2019-02-18T21:39:49.354Z,4.00
2019-02-18T21:42:18.506Z,3.90
2019-02-18T21:44:46.915Z,3.90
2019-02-18T21:47:15.337Z,3.70
2019-02-18T21:49:43.725Z,3.70
2019-02-18T21:52:12.136Z,3.60
2019-02-18T21:54:40.521Z,3.60
2019-02-18T21:57:08.925Z,3.60
2019-02-18T21:59:37.335Z,3.60
2019-02-18T22:02:05.805Z,3.60
2019-02-18T22:04:34.211Z,3.50
2019-02-18T22:07:02.627Z,3.50
2019-02-18T22:09:31.031Z,3.50
2019-02-18T22:11:59.451Z,3.50
2019-02-18T22:14:33.423Z,3.50
2019-02-18T22:16:58.456Z,3.40
2019-02-18T22:19:26.865Z,3.40
2019-02-18T22:21:55.274Z,3.40
2019-02-18T22:24:23.677Z,3.40
2019-02-18T22:26:52.077Z,3.40
2019-02-18T22:29:20.474Z,3.30
2019-02-18T22:31:49.269Z,3.20
2019-02-18T22:34:17.671Z,3.20
2019-02-18T22:36:46.096Z,3.20
2019-02-18T22:39:14.491Z,3.20
2019-02-18T22:41:42.900Z,3.20
2019-02-18T22:44:11.295Z,3.10
2019-02-18T22:46:39.709Z,3.10
2019-02-18T22:49:08.387Z,3.10
2019-02-18T22:51:36.802Z,3.10
2019-02-18T22:54:05.210Z,3.10
2019-02-18T22:56:33.624Z,3.00
2019-02-18T22:59:02.024Z,3.00
2019-02-18T23:01:30.434Z,3.00
2019-02-18T23:03:58.834Z,3.00
2019-02-18T23:06:27.253Z,3.00
2019-02-18T23:08:55.665Z,2.90
2019-02-18T23:11:24.092Z,2.90
2019-02-18T23:13:52.483Z,2.90
2019-02-18T23:16:20.915Z,2.90
2019-02-18T23:18:49.465Z,2.80
2019-02-18T23:21:17.883Z,2.70
2019-02-18T23:23:46.297Z,2.60
2019-02-18T23:26:14.702Z,2.60
2019-02-18T23:28:43.176Z,2.60
2019-02-18T23:31:11.596Z,2.60
2019-02-18T23:33:40.003Z,2.60
2019-02-18T23:36:08.427Z,2.60
2019-02-18T23:38:36.814Z,2.60
2019-02-18T23:41:05.217Z,2.40
2019-02-18T23:43:33.626Z,2.40
2019-02-18T23:46:02.035Z,2.30
2019-02-18T23:48:30.449Z,2.40
2019-02-18T23:50:58.864Z,2.40
2019-02-18T23:53:27.330Z,2.30
2019-02-18T23:55:55.749Z,2.30
2019-02-18T23:58:24.167Z,2.20
